sensor_id;sensor_type;location;lat;lon;timestamp;P1;durP1;ratioP1;P2;durP2;ratioP2
14754;SDS011;7469;50.906;6.952;2023-11-21T00:01:17;6.53;;;4.50;;
14754;SDS011;7469;50.906;6.952;2023-11-21T00:03:46;8.10;;;4.77;;
14754;SDS011;7469;50.906;6.952;2023-11-21T00:06:15;9.50;;;4.30;;
14754;SDS011;7469;50.906;6.952;2023-11-21T00:08:43;7.73;;;4.67;;
14754;SDS011;7469;50.906;6.952;2023-11-21T00:11:11;10.93;;;4.30;;
14754;SDS011;7469;50.906;6.952;2023-11-21T00:13:39;8.03;;;4.80;;
14754;SDS011;7469;50.906;6.952;2023-11-21T00:16:07;9.47;;;4.47;;
14754;SDS011;7469;50.906;6.952;2023-11-21T00:18:35;6.50;;;4.50;;
14754;SDS011;7469;50.906;6.952;2023-11-21T00:21:05;6.37;;;4.23;;
14754;SDS011;7469;50.906;6.952;2023-11-21T00:23:33;7.80;;;4.80;;
14754;SDS011;7469;50.906;6.952;2023-11-21T00:26:01;7.47;;;4.90;;
14754;SDS011;7469;50.906;6.952;2023-11-21T00:28:30;8.57;;;4.50;;
14754;SDS011;7469;50.906;6.952;2023-11-21T00:30:58;8.13;;;5.40;;
14754;SDS011;7469;50.906;6.952;2023-11-21T00:33:26;11.47;;;5.17;;
14754;SDS011;7469;50.906;6.952;2023-11-21T00:35:54;13.20;;;5.77;;
14754;SDS011;7469;50.906;6.952;2023-11-21T00:38:24;12.40;;;6.23;;
14754;SDS011;7469;50.906;6.952;2023-11-21T00:40:52;13.43;;;5.80;;
14754;SDS011;7469;50.906;6.952;2023-11-21T00:43:22;11.07;;;7.03;;
14754;SDS011;7469;50.906;6.952;2023-11-21T00:45:50;12.00;;;6.93;;
14754;SDS011;7469;50.906;6.952;2023-11-21T00:48:18;11.40;;;6.60;;
14754;SDS011;7469;50.906;6.952;2023-11-21T00:50:46;11.07;;;6.80;;
14754;SDS011;7469;50.906;6.952;2023-11-21T00:53:14;10.97;;;7.20;;
14754;SDS011;7469;50.906;6.952;2023-11-21T00:55:44;10.73;;;6.93;;
14754;SDS011;7469;50.906;6.952;2023-11-21T00:58:12;16.77;;;8.10;;
14754;SDS011;7469;50.906;6.952;2023-11-21T01:00:40;14.30;;;8.77;;
14754;SDS011;7469;50.906;6.952;2023-11-21T01:03:08;15.07;;;7.83;;
14754;SDS011;7469;50.906;6.952;2023-11-21T01:05:36;13.90;;;8.47;;
14754;SDS011;7469;50.906;6.952;2023-11-21T01:08:04;14.20;;;8.63;;
14754;SDS011;7469;50.906;6.952;2023-11-21T01:10:32;15.73;;;8.47;;
14754;SDS011;7469;50.906;6.952;2023-11-21T01:13:02;12.57;;;8.37;;
14754;SDS011;7469;50.906;6.952;2023-11-21T01:15:31;12.93;;;8.73;;
14754;SDS011;7469;50.906;6.952;2023-11-21T01:18:00;13.50;;;8.47;;
14754;SDS011;7469;50.906;6.952;2023-11-21T01:20:27;14.00;;;8.57;;
14754;SDS011;7469;50.906;6.952;2023-11-21T01:22:55;16.10;;;8.87;;
14754;SDS011;7469;50.906;6.952;2023-11-21T01:25:23;16.83;;;9.50;;
14754;SDS011;7469;50.906;6.952;2023-11-21T01:27:53;12.63;;;8.27;;
14754;SDS011;7469;50.906;6.952;2023-11-21T01:30:22;16.03;;;9.23;;
14754;SDS011;7469;50.906;6.952;2023-11-21T01:32:50;11.77;;;9.00;;
14754;SDS011;7469;50.906;6.952;2023-11-21T01:35:18;16.97;;;8.67;;
14754;SDS011;7469;50.906;6.952;2023-11-21T01:37:46;13.77;;;9.43;;
14754;SDS011;7469;50.906;6.952;2023-11-21T01:40:15;11.77;;;9.40;;
14754;SDS011;7469;50.906;6.952;2023-11-21T01:42:43;16.07;;;9.17;;
14754;SDS011;7469;50.906;6.952;2023-11-21T01:45:11;15.10;;;9.57;;
14754;SDS011;7469;50.906;6.952;2023-11-21T01:47:41;13.13;;;8.83;;
14754;SDS011;7469;50.906;6.952;2023-11-21T01:50:10;15.27;;;8.77;;
14754;SDS011;7469;50.906;6.952;2023-11-21T01:52:43;13.13;;;8.90;;
14754;SDS011;7469;50.906;6.952;2023-11-21T01:55:13;15.40;;;8.93;;
14754;SDS011;7469;50.906;6.952;2023-11-21T01:57:53;15.83;;;8.93;;
14754;SDS011;7469;50.906;6.952;2023-11-21T02:00:22;16.37;;;8.80;;
14754;SDS011;7469;50.906;6.952;2023-11-21T02:02:51;12.13;;;9.30;;
14754;SDS011;7469;50.906;6.952;2023-11-21T02:05:20;14.13;;;9.03;;
14754;SDS011;7469;50.906;6.952;2023-11-21T02:07:48;15.93;;;9.40;;
14754;SDS011;7469;50.906;6.952;2023-11-21T02:10:18;13.53;;;8.80;;
14754;SDS011;7469;50.906;6.952;2023-11-21T02:12:49;15.97;;;8.57;;
14754;SDS011;7469;50.906;6.952;2023-11-21T02:15:17;14.37;;;9.10;;
14754;SDS011;7469;50.906;6.952;2023-11-21T02:17:47;16.43;;;8.93;;
14754;SDS011;7469;50.906;6.952;2023-11-21T02:20:20;14.63;;;8.87;;
14754;SDS011;7469;50.906;6.952;2023-11-21T02:22:52;13.40;;;8.33;;
14754;SDS011;7469;50.906;6.952;2023-11-21T02:25:24;20.70;;;9.23;;
14754;SDS011;7469;50.906;6.952;2023-11-21T02:27:54;13.47;;;8.63;;
14754;SDS011;7469;50.906;6.952;2023-11-21T02:30:22;16.67;;;9.10;;
14754;SDS011;7469;50.906;6.952;2023-11-21T02:32:51;15.03;;;10.37;;
14754;SDS011;7469;50.906;6.952;2023-11-21T02:35:20;22.13;;;9.90;;
14754;SDS011;7469;50.906;6.952;2023-11-21T02:37:48;13.63;;;9.10;;
14754;SDS011;7469;50.906;6.952;2023-11-21T02:40:18;18.63;;;10.37;;
14754;SDS011;7469;50.906;6.952;2023-11-21T02:42:47;15.00;;;9.73;;
14754;SDS011;7469;50.906;6.952;2023-11-21T02:45:18;19.60;;;10.50;;
14754;SDS011;7469;50.906;6.952;2023-11-21T02:47:47;18.60;;;11.67;;
14754;SDS011;7469;50.906;6.952;2023-11-21T02:50:16;16.60;;;11.87;;
14754;SDS011;7469;50.906;6.952;2023-11-21T02:52:46;18.57;;;12.30;;
14754;SDS011;7469;50.906;6.952;2023-11-21T02:55:14;22.17;;;11.67;;
14754;SDS011;7469;50.906;6.952;2023-11-21T02:57:43;19.23;;;12.20;;
14754;SDS011;7469;50.906;6.952;2023-11-21T03:00:11;18.73;;;12.37;;
14754;SDS011;7469;50.906;6.952;2023-11-21T03:02:41;22.03;;;12.57;;
14754;SDS011;7469;50.906;6.952;2023-11-21T03:05:10;18.83;;;13.27;;
14754;SDS011;7469;50.906;6.952;2023-11-21T03:07:39;19.10;;;12.87;;
14754;SDS011;7469;50.906;6.952;2023-11-21T03:10:07;19.53;;;12.83;;
14754;SDS011;7469;50.906;6.952;2023-11-21T03:12:37;21.33;;;12.60;;
14754;SDS011;7469;50.906;6.952;2023-11-21T03:15:07;24.43;;;13.13;;
14754;SDS011;7469;50.906;6.952;2023-11-21T03:17:36;22.07;;;12.87;;
14754;SDS011;7469;50.906;6.952;2023-11-21T03:20:05;20.07;;;11.83;;
14754;SDS011;7469;50.906;6.952;2023-11-21T03:22:37;22.77;;;12.77;;
14754;SDS011;7469;50.906;6.952;2023-11-21T03:25:05;22.53;;;12.13;;
14754;SDS011;7469;50.906;6.952;2023-11-21T03:27:36;19.13;;;12.43;;
14754;SDS011;7469;50.906;6.952;2023-11-21T03:30:07;22.30;;;12.27;;
14754;SDS011;7469;50.906;6.952;2023-11-21T03:32:37;21.43;;;12.43;;
14754;SDS011;7469;50.906;6.952;2023-11-21T03:35:05;20.57;;;12.37;;
14754;SDS011;7469;50.906;6.952;2023-11-21T03:37:34;22.63;;;12.57;;
14754;SDS011;7469;50.906;6.952;2023-11-21T03:40:02;18.47;;;12.73;;
14754;SDS011;7469;50.906;6.952;2023-11-21T03:42:31;20.63;;;13.93;;
14754;SDS011;7469;50.906;6.952;2023-11-21T03:44:59;23.73;;;13.97;;
14754;SDS011;7469;50.906;6.952;2023-11-21T03:47:28;20.67;;;12.87;;
14754;SDS011;7469;50.906;6.952;2023-11-21T03:49:56;26.00;;;14.83;;
14754;SDS011;7469;50.906;6.952;2023-11-21T03:52:24;23.70;;;13.93;;
14754;SDS011;7469;50.906;6.952;2023-11-21T03:54:53;20.70;;;13.53;;
14754;SDS011;7469;50.906;6.952;2023-11-21T03:57:21;19.10;;;14.03;;
14754;SDS011;7469;50.906;6.952;2023-11-21T03:59:49;23.40;;;13.27;;
14754;SDS011;7469;50.906;6.952;2023-11-21T04:02:17;23.20;;;14.20;;
14754;SDS011;7469;50.906;6.952;2023-11-21T04:04:46;24.27;;;13.37;;
14754;SDS011;7469;50.906;6.952;2023-11-21T04:07:15;21.27;;;13.80;;
14754;SDS011;7469;50.906;6.952;2023-11-21T04:09:43;26.90;;;13.90;;
14754;SDS011;7469;50.906;6.952;2023-11-21T04:12:11;22.93;;;13.83;;
14754;SDS011;7469;50.906;6.952;2023-11-21T04:14:39;21.80;;;13.93;;
14754;SDS011;7469;50.906;6.952;2023-11-21T04:17:07;18.93;;;12.90;;
14754;SDS011;7469;50.906;6.952;2023-11-21T04:19:35;23.17;;;14.07;;
14754;SDS011;7469;50.906;6.952;2023-11-21T04:22:05;23.87;;;13.77;;
14754;SDS011;7469;50.906;6.952;2023-11-21T04:24:33;22.70;;;14.27;;
14754;SDS011;7469;50.906;6.952;2023-11-21T04:27:01;21.40;;;14.20;;
14754;SDS011;7469;50.906;6.952;2023-11-21T04:29:29;23.50;;;14.50;;
14754;SDS011;7469;50.906;6.952;2023-11-21T04:31:57;19.93;;;14.00;;
14754;SDS011;7469;50.906;6.952;2023-11-21T04:34:25;25.33;;;14.80;;
14754;SDS011;7469;50.906;6.952;2023-11-21T04:36:53;24.17;;;15.43;;
14754;SDS011;7469;50.906;6.952;2023-11-21T04:39:22;20.03;;;14.00;;
14754;SDS011;7469;50.906;6.952;2023-11-21T04:41:51;22.57;;;14.07;;
14754;SDS011;7469;50.906;6.952;2023-11-21T04:44:18;20.00;;;13.67;;
14754;SDS011;7469;50.906;6.952;2023-11-21T04:46:46;21.33;;;13.33;;
14754;SDS011;7469;50.906;6.952;2023-11-21T04:49:14;23.60;;;13.47;;
14754;SDS011;7469;50.906;6.952;2023-11-21T04:51:42;18.67;;;12.93;;
14754;SDS011;7469;50.906;6.952;2023-11-21T04:54:10;26.50;;;14.20;;
14754;SDS011;7469;50.906;6.952;2023-11-21T04:56:39;22.73;;;14.33;;
14754;SDS011;7469;50.906;6.952;2023-11-21T04:59:08;22.37;;;14.50;;
14754;SDS011;7469;50.906;6.952;2023-11-21T05:01:36;22.97;;;14.10;;
14754;SDS011;7469;50.906;6.952;2023-11-21T05:04:05;25.47;;;13.57;;
14754;SDS011;7469;50.906;6.952;2023-11-21T05:06:35;23.70;;;14.50;;
14754;SDS011;7469;50.906;6.952;2023-11-21T05:09:03;24.60;;;14.47;;
14754;SDS011;7469;50.906;6.952;2023-11-21T05:11:31;24.57;;;14.77;;
14754;SDS011;7469;50.906;6.952;2023-11-21T05:14:00;23.37;;;13.53;;
14754;SDS011;7469;50.906;6.952;2023-11-21T05:16:30;22.47;;;14.03;;
14754;SDS011;7469;50.906;6.952;2023-11-21T05:18:58;23.20;;;13.40;;
14754;SDS011;7469;50.906;6.952;2023-11-21T05:21:27;20.87;;;13.80;;
14754;SDS011;7469;50.906;6.952;2023-11-21T05:23:55;27.37;;;14.63;;
14754;SDS011;7469;50.906;6.952;2023-11-21T05:26:24;21.07;;;13.93;;
14754;SDS011;7469;50.906;6.952;2023-11-21T05:28:52;23.53;;;13.60;;
14754;SDS011;7469;50.906;6.952;2023-11-21T05:31:21;24.00;;;14.20;;
14754;SDS011;7469;50.906;6.952;2023-11-21T05:33:49;18.23;;;13.17;;
14754;SDS011;7469;50.906;6.952;2023-11-21T05:36:17;25.83;;;15.20;;
14754;SDS011;7469;50.906;6.952;2023-11-21T05:38:45;22.40;;;14.43;;
14754;SDS011;7469;50.906;6.952;2023-11-21T05:41:13;24.17;;;14.57;;
14754;SDS011;7469;50.906;6.952;2023-11-21T05:43:41;28.13;;;13.97;;
14754;SDS011;7469;50.906;6.952;2023-11-21T05:46:09;24.07;;;14.17;;
14754;SDS011;7469;50.906;6.952;2023-11-21T05:48:38;24.97;;;13.90;;
14754;SDS011;7469;50.906;6.952;2023-11-21T05:51:06;21.30;;;14.63;;
14754;SDS011;7469;50.906;6.952;2023-11-21T05:53:34;22.23;;;14.33;;
14754;SDS011;7469;50.906;6.952;2023-11-21T05:56:03;29.53;;;14.03;;
14754;SDS011;7469;50.906;6.952;2023-11-21T05:58:31;25.03;;;14.23;;
14754;SDS011;7469;50.906;6.952;2023-11-21T06:00:59;22.23;;;15.00;;
14754;SDS011;7469;50.906;6.952;2023-11-21T06:03:27;20.60;;;14.37;;
14754;SDS011;7469;50.906;6.952;2023-11-21T06:05:57;26.67;;;15.00;;
14754;SDS011;7469;50.906;6.952;2023-11-21T06:08:25;22.30;;;13.97;;
14754;SDS011;7469;50.906;6.952;2023-11-21T06:10:53;23.23;;;15.43;;
14754;SDS011;7469;50.906;6.952;2023-11-21T06:13:22;19.87;;;14.43;;
14754;SDS011;7469;50.906;6.952;2023-11-21T06:15:51;29.80;;;15.57;;
14754;SDS011;7469;50.906;6.952;2023-11-21T06:18:19;21.77;;;14.37;;
14754;SDS011;7469;50.906;6.952;2023-11-21T06:20:47;26.37;;;16.30;;
14754;SDS011;7469;50.906;6.952;2023-11-21T06:23:16;23.10;;;15.70;;
14754;SDS011;7469;50.906;6.952;2023-11-21T06:25:44;21.57;;;15.80;;
14754;SDS011;7469;50.906;6.952;2023-11-21T06:28:12;27.73;;;16.43;;
14754;SDS011;7469;50.906;6.952;2023-11-21T06:30:43;25.97;;;15.23;;
14754;SDS011;7469;50.906;6.952;2023-11-21T06:33:11;34.00;;;17.43;;
14754;SDS011;7469;50.906;6.952;2023-11-21T06:35:40;23.87;;;16.23;;
14754;SDS011;7469;50.906;6.952;2023-11-21T06:38:08;26.73;;;15.10;;
14754;SDS011;7469;50.906;6.952;2023-11-21T06:40:37;25.60;;;16.17;;
14754;SDS011;7469;50.906;6.952;2023-11-21T06:43:06;27.63;;;16.10;;
14754;SDS011;7469;50.906;6.952;2023-11-21T06:45:34;23.03;;;16.27;;
14754;SDS011;7469;50.906;6.952;2023-11-21T06:48:04;24.73;;;15.37;;
14754;SDS011;7469;50.906;6.952;2023-11-21T06:50:33;26.20;;;15.93;;
14754;SDS011;7469;50.906;6.952;2023-11-21T06:53:01;26.43;;;17.13;;
14754;SDS011;7469;50.906;6.952;2023-11-21T06:55:33;25.80;;;17.20;;
14754;SDS011;7469;50.906;6.952;2023-11-21T06:58:03;28.60;;;17.27;;
14754;SDS011;7469;50.906;6.952;2023-11-21T07:00:31;29.60;;;17.27;;
14754;SDS011;7469;50.906;6.952;2023-11-21T07:02:59;26.10;;;16.47;;
14754;SDS011;7469;50.906;6.952;2023-11-21T07:05:28;23.00;;;15.73;;
14754;SDS011;7469;50.906;6.952;2023-11-21T07:07:56;27.97;;;17.20;;
14754;SDS011;7469;50.906;6.952;2023-11-21T07:10:27;30.97;;;17.87;;
14754;SDS011;7469;50.906;6.952;2023-11-21T07:12:54;24.70;;;17.90;;
14754;SDS011;7469;50.906;6.952;2023-11-21T07:15:24;26.50;;;18.70;;
14754;SDS011;7469;50.906;6.952;2023-11-21T07:17:52;29.73;;;18.10;;
14754;SDS011;7469;50.906;6.952;2023-11-21T07:20:20;26.47;;;17.33;;
14754;SDS011;7469;50.906;6.952;2023-11-21T07:22:48;29.67;;;18.73;;
14754;SDS011;7469;50.906;6.952;2023-11-21T07:25:16;28.27;;;18.43;;
14754;SDS011;7469;50.906;6.952;2023-11-21T07:27:44;27.53;;;18.50;;
14754;SDS011;7469;50.906;6.952;2023-11-21T07:30:13;29.67;;;18.53;;
14754;SDS011;7469;50.906;6.952;2023-11-21T07:32:42;28.43;;;19.07;;
14754;SDS011;7469;50.906;6.952;2023-11-21T07:35:11;25.97;;;18.70;;
14754;SDS011;7469;50.906;6.952;2023-11-21T07:37:39;28.63;;;19.20;;
14754;SDS011;7469;50.906;6.952;2023-11-21T07:40:07;27.17;;;17.53;;
14754;SDS011;7469;50.906;6.952;2023-11-21T07:42:37;30.57;;;19.20;;
14754;SDS011;7469;50.906;6.952;2023-11-21T07:45:06;27.53;;;18.37;;
14754;SDS011;7469;50.906;6.952;2023-11-21T07:47:34;28.60;;;19.47;;
14754;SDS011;7469;50.906;6.952;2023-11-21T07:50:04;32.00;;;19.40;;
14754;SDS011;7469;50.906;6.952;2023-11-21T07:52:34;30.60;;;19.57;;
14754;SDS011;7469;50.906;6.952;2023-11-21T07:55:02;29.47;;;19.60;;
14754;SDS011;7469;50.906;6.952;2023-11-21T07:57:31;36.63;;;19.83;;
14754;SDS011;7469;50.906;6.952;2023-11-21T07:59:59;31.20;;;19.77;;
14754;SDS011;7469;50.906;6.952;2023-11-21T08:02:27;31.63;;;19.40;;
14754;SDS011;7469;50.906;6.952;2023-11-21T08:04:55;31.57;;;20.30;;
14754;SDS011;7469;50.906;6.952;2023-11-21T08:07:25;33.77;;;20.37;;
14754;SDS011;7469;50.906;6.952;2023-11-21T08:09:53;36.33;;;20.70;;
14754;SDS011;7469;50.906;6.952;2023-11-21T08:12:22;35.40;;;21.70;;
14754;SDS011;7469;50.906;6.952;2023-11-21T08:14:50;32.80;;;20.30;;
14754;SDS011;7469;50.906;6.952;2023-11-21T08:17:18;33.47;;;20.37;;
14754;SDS011;7469;50.906;6.952;2023-11-21T08:19:47;34.33;;;22.10;;
14754;SDS011;7469;50.906;6.952;2023-11-21T08:22:16;32.67;;;22.47;;
14754;SDS011;7469;50.906;6.952;2023-11-21T08:24:46;31.87;;;21.30;;
14754;SDS011;7469;50.906;6.952;2023-11-21T08:27:13;31.10;;;20.87;;
14754;SDS011;7469;50.906;6.952;2023-11-21T08:29:42;35.77;;;21.47;;
14754;SDS011;7469;50.906;6.952;2023-11-21T08:32:11;36.63;;;21.77;;
14754;SDS011;7469;50.906;6.952;2023-11-21T08:34:39;35.47;;;22.27;;
14754;SDS011;7469;50.906;6.952;2023-11-21T08:37:09;34.07;;;21.63;;
14754;SDS011;7469;50.906;6.952;2023-11-21T08:39:38;35.63;;;22.00;;
14754;SDS011;7469;50.906;6.952;2023-11-21T08:42:09;34.03;;;22.30;;
14754;SDS011;7469;50.906;6.952;2023-11-21T08:44:37;35.93;;;22.20;;
14754;SDS011;7469;50.906;6.952;2023-11-21T08:47:06;38.10;;;22.80;;
14754;SDS011;7469;50.906;6.952;2023-11-21T08:49:34;41.67;;;22.90;;
14754;SDS011;7469;50.906;6.952;2023-11-21T08:52:03;39.37;;;22.33;;
14754;SDS011;7469;50.906;6.952;2023-11-21T08:54:32;39.73;;;22.67;;
14754;SDS011;7469;50.906;6.952;2023-11-21T08:57:01;50.57;;;31.53;;
14754;SDS011;7469;50.906;6.952;2023-11-21T08:59:30;48.40;;;30.27;;
14754;SDS011;7469;50.906;6.952;2023-11-21T09:01:58;36.73;;;22.83;;
14754;SDS011;7469;50.906;6.952;2023-11-21T09:04:26;39.20;;;23.20;;
14754;SDS011;7469;50.906;6.952;2023-11-21T09:06:54;34.60;;;20.97;;
14754;SDS011;7469;50.906;6.952;2023-11-21T09:09:22;34.10;;;22.13;;
14754;SDS011;7469;50.906;6.952;2023-11-21T09:11:51;37.80;;;22.67;;
14754;SDS011;7469;50.906;6.952;2023-11-21T09:14:19;34.70;;;21.83;;
14754;SDS011;7469;50.906;6.952;2023-11-21T09:16:48;36.93;;;22.73;;
14754;SDS011;7469;50.906;6.952;2023-11-21T09:19:17;37.27;;;21.50;;
14754;SDS011;7469;50.906;6.952;2023-11-21T09:21:45;39.27;;;23.03;;
14754;SDS011;7469;50.906;6.952;2023-11-21T09:24:13;40.17;;;22.73;;
14754;SDS011;7469;50.906;6.952;2023-11-21T09:26:41;40.93;;;23.47;;
14754;SDS011;7469;50.906;6.952;2023-11-21T09:29:09;36.40;;;23.77;;
14754;SDS011;7469;50.906;6.952;2023-11-21T09:31:37;42.57;;;23.93;;
14754;SDS011;7469;50.906;6.952;2023-11-21T09:34:06;45.47;;;24.33;;
14754;SDS011;7469;50.906;6.952;2023-11-21T09:36:34;43.53;;;25.20;;
14754;SDS011;7469;50.906;6.952;2023-11-21T09:39:05;44.60;;;25.80;;
14754;SDS011;7469;50.906;6.952;2023-11-21T09:41:37;48.13;;;25.90;;
14754;SDS011;7469;50.906;6.952;2023-11-21T09:44:13;40.13;;;24.53;;
14754;SDS011;7469;50.906;6.952;2023-11-21T09:46:44;45.27;;;24.97;;
14754;SDS011;7469;50.906;6.952;2023-11-21T09:49:17;41.30;;;24.97;;
14754;SDS011;7469;50.906;6.952;2023-11-21T09:51:50;40.27;;;25.03;;
14754;SDS011;7469;50.906;6.952;2023-11-21T09:54:22;43.03;;;25.63;;
14754;SDS011;7469;50.906;6.952;2023-11-21T09:56:50;37.37;;;23.53;;
14754;SDS011;7469;50.906;6.952;2023-11-21T09:59:18;40.47;;;24.03;;
14754;SDS011;7469;50.906;6.952;2023-11-21T10:01:47;38.57;;;23.83;;
14754;SDS011;7469;50.906;6.952;2023-11-21T10:04:18;39.87;;;23.43;;
14754;SDS011;7469;50.906;6.952;2023-11-21T10:06:47;36.33;;;23.33;;
14754;SDS011;7469;50.906;6.952;2023-11-21T10:09:16;33.97;;;23.13;;
14754;SDS011;7469;50.906;6.952;2023-11-21T10:11:47;41.67;;;23.90;;
14754;SDS011;7469;50.906;6.952;2023-11-21T10:14:16;37.93;;;24.03;;
14754;SDS011;7469;50.906;6.952;2023-11-21T10:16:51;40.63;;;24.37;;
14754;SDS011;7469;50.906;6.952;2023-11-21T10:19:22;38.93;;;25.87;;
14754;SDS011;7469;50.906;6.952;2023-11-21T10:21:51;40.40;;;25.20;;
14754;SDS011;7469;50.906;6.952;2023-11-21T10:24:20;40.30;;;25.77;;
14754;SDS011;7469;50.906;6.952;2023-11-21T10:26:48;39.87;;;23.13;;
14754;SDS011;7469;50.906;6.952;2023-11-21T10:29:19;35.17;;;24.20;;
14754;SDS011;7469;50.906;6.952;2023-11-21T10:31:49;39.93;;;24.50;;
14754;SDS011;7469;50.906;6.952;2023-11-21T10:34:18;36.93;;;23.83;;
14754;SDS011;7469;50.906;6.952;2023-11-21T10:36:49;38.40;;;24.27;;
14754;SDS011;7469;50.906;6.952;2023-11-21T10:39:17;38.80;;;23.73;;
14754;SDS011;7469;50.906;6.952;2023-11-21T10:41:46;37.00;;;22.53;;
14754;SDS011;7469;50.906;6.952;2023-11-21T10:44:15;36.57;;;23.00;;
14754;SDS011;7469;50.906;6.952;2023-11-21T10:46:48;34.90;;;21.93;;
14754;SDS011;7469;50.906;6.952;2023-11-21T10:49:17;32.33;;;22.00;;
14754;SDS011;7469;50.906;6.952;2023-11-21T10:51:46;31.87;;;20.97;;
14754;SDS011;7469;50.906;6.952;2023-11-21T10:54:18;34.03;;;20.57;;
14754;SDS011;7469;50.906;6.952;2023-11-21T10:56:48;37.40;;;20.33;;
14754;SDS011;7469;50.906;6.952;2023-11-21T10:59:17;38.67;;;19.33;;
14754;SDS011;7469;50.906;6.952;2023-11-21T11:01:48;35.70;;;20.33;;
14754;SDS011;7469;50.906;6.952;2023-11-21T11:04:19;39.97;;;20.53;;
14754;SDS011;7469;50.906;6.952;2023-11-21T11:06:49;36.27;;;20.77;;
14754;SDS011;7469;50.906;6.952;2023-11-21T11:09:22;39.97;;;21.13;;
14754;SDS011;7469;50.906;6.952;2023-11-21T11:11:51;38.27;;;22.03;;
14754;SDS011;7469;50.906;6.952;2023-11-21T11:14:20;36.73;;;21.03;;
14754;SDS011;7469;50.906;6.952;2023-11-21T11:16:53;35.03;;;20.23;;
14754;SDS011;7469;50.906;6.952;2023-11-21T11:19:22;36.27;;;20.90;;
14754;SDS011;7469;50.906;6.952;2023-11-21T11:21:53;35.63;;;20.60;;
14754;SDS011;7469;50.906;6.952;2023-11-21T11:24:36;36.73;;;20.23;;
14754;SDS011;7469;50.906;6.952;2023-11-21T11:27:20;38.60;;;21.00;;
14754;SDS011;7469;50.906;6.952;2023-11-21T11:29:56;38.13;;;19.40;;
14754;SDS011;7469;50.906;6.952;2023-11-21T11:32:36;41.13;;;20.30;;
14754;SDS011;7469;50.906;6.952;2023-11-21T11:35:26;36.77;;;19.73;;
14754;SDS011;7469;50.906;6.952;2023-11-21T11:38:01;39.67;;;19.83;;
14754;SDS011;7469;50.906;6.952;2023-11-21T11:40:39;40.77;;;20.40;;
14754;SDS011;7469;50.906;6.952;2023-11-21T11:43:08;41.90;;;21.27;;
14754;SDS011;7469;50.906;6.952;2023-11-21T11:45:36;40.83;;;21.70;;
14754;SDS011;7469;50.906;6.952;2023-11-21T11:48:08;44.33;;;21.23;;
14754;SDS011;7469;50.906;6.952;2023-11-21T11:50:42;44.37;;;20.50;;
14754;SDS011;7469;50.906;6.952;2023-11-21T11:53:25;42.50;;;19.47;;
14754;SDS011;7469;50.906;6.952;2023-11-21T11:55:59;37.97;;;21.10;;
14754;SDS011;7469;50.906;6.952;2023-11-21T11:58:49;40.30;;;21.10;;
14754;SDS011;7469;50.906;6.952;2023-11-21T12:01:18;40.37;;;20.60;;
14754;SDS011;7469;50.906;6.952;2023-11-21T12:06:51;37.70;;;19.13;;
14754;SDS011;7469;50.906;6.952;2023-11-21T12:09:21;33.10;;;18.27;;
14754;SDS011;7469;50.906;6.952;2023-11-21T12:11:51;32.77;;;18.77;;
14754;SDS011;7469;50.906;6.952;2023-11-21T12:14:20;34.03;;;18.40;;
14754;SDS011;7469;50.906;6.952;2023-11-21T12:16:49;35.23;;;18.03;;
14754;SDS011;7469;50.906;6.952;2023-11-21T12:19:18;31.17;;;17.60;;
14754;SDS011;7469;50.906;6.952;2023-11-21T12:21:47;34.73;;;17.37;;
14754;SDS011;7469;50.906;6.952;2023-11-21T12:24:16;27.50;;;16.90;;
14754;SDS011;7469;50.906;6.952;2023-11-21T12:26:44;32.33;;;17.23;;
14754;SDS011;7469;50.906;6.952;2023-11-21T12:29:13;30.63;;;17.43;;
14754;SDS011;7469;50.906;6.952;2023-11-21T12:31:43;40.17;;;17.73;;
14754;SDS011;7469;50.906;6.952;2023-11-21T12:34:12;39.13;;;18.30;;
14754;SDS011;7469;50.906;6.952;2023-11-21T12:36:40;34.00;;;16.87;;
14754;SDS011;7469;50.906;6.952;2023-11-21T12:39:08;32.87;;;16.33;;
14754;SDS011;7469;50.906;6.952;2023-11-21T12:41:37;33.43;;;18.40;;
14754;SDS011;7469;50.906;6.952;2023-11-21T12:44:09;38.07;;;24.90;;
14754;SDS011;7469;50.906;6.952;2023-11-21T12:46:42;34.40;;;18.40;;
14754;SDS011;7469;50.906;6.952;2023-11-21T12:49:12;31.30;;;16.13;;
14754;SDS011;7469;50.906;6.952;2023-11-21T12:51:44;31.07;;;16.77;;
14754;SDS011;7469;50.906;6.952;2023-11-21T12:54:13;32.73;;;17.23;;
14754;SDS011;7469;50.906;6.952;2023-11-21T12:56:41;28.27;;;16.37;;
14754;SDS011;7469;50.906;6.952;2023-11-21T12:59:13;32.03;;;18.03;;
14754;SDS011;7469;50.906;6.952;2023-11-21T13:01:44;30.77;;;17.07;;
14754;SDS011;7469;50.906;6.952;2023-11-21T13:04:12;31.50;;;17.80;;
14754;SDS011;7469;50.906;6.952;2023-11-21T13:06:40;34.73;;;18.87;;
14754;SDS011;7469;50.906;6.952;2023-11-21T13:09:08;39.07;;;20.83;;
14754;SDS011;7469;50.906;6.952;2023-11-21T13:11:37;41.47;;;22.00;;
14754;SDS011;7469;50.906;6.952;2023-11-21T13:14:07;43.37;;;24.07;;
14754;SDS011;7469;50.906;6.952;2023-11-21T13:16:37;44.33;;;23.90;;
14754;SDS011;7469;50.906;6.952;2023-11-21T13:19:14;43.30;;;22.33;;
14754;SDS011;7469;50.906;6.952;2023-11-21T13:21:42;40.57;;;23.40;;
14754;SDS011;7469;50.906;6.952;2023-11-21T13:24:10;43.30;;;22.50;;
14754;SDS011;7469;50.906;6.952;2023-11-21T13:26:38;43.97;;;23.23;;
14754;SDS011;7469;50.906;6.952;2023-11-21T13:29:07;42.17;;;23.80;;
14754;SDS011;7469;50.906;6.952;2023-11-21T13:31:35;37.13;;;22.00;;
14754;SDS011;7469;50.906;6.952;2023-11-21T13:34:05;42.97;;;22.97;;
14754;SDS011;7469;50.906;6.952;2023-11-21T13:36:36;38.33;;;21.50;;
14754;SDS011;7469;50.906;6.952;2023-11-21T13:39:04;39.57;;;21.30;;
14754;SDS011;7469;50.906;6.952;2023-11-21T13:41:35;38.87;;;20.50;;
14754;SDS011;7469;50.906;6.952;2023-11-21T13:44:05;37.83;;;20.97;;
14754;SDS011;7469;50.906;6.952;2023-11-21T13:46:42;43.37;;;21.90;;
14754;SDS011;7469;50.906;6.952;2023-11-21T13:49:12;43.37;;;21.70;;
14754;SDS011;7469;50.906;6.952;2023-11-21T13:51:43;45.00;;;22.70;;
14754;SDS011;7469;50.906;6.952;2023-11-21T13:54:14;39.47;;;22.50;;
14754;SDS011;7469;50.906;6.952;2023-11-21T13:56:42;45.03;;;24.67;;
14754;SDS011;7469;50.906;6.952;2023-11-21T13:59:11;53.50;;;30.13;;
14754;SDS011;7469;50.906;6.952;2023-11-21T14:01:47;40.23;;;23.00;;
14754;SDS011;7469;50.906;6.952;2023-11-21T14:04:23;43.30;;;23.63;;
14754;SDS011;7469;50.906;6.952;2023-11-21T14:07:20;44.37;;;23.03;;
14754;SDS011;7469;50.906;6.952;2023-11-21T14:09:56;43.60;;;24.13;;
14754;SDS011;7469;50.906;6.952;2023-11-21T14:12:24;44.70;;;24.17;;
14754;SDS011;7469;50.906;6.952;2023-11-21T14:14:52;40.47;;;23.57;;
14754;SDS011;7469;50.906;6.952;2023-11-21T14:17:21;45.60;;;23.43;;
14754;SDS011;7469;50.906;6.952;2023-11-21T14:19:50;40.83;;;23.30;;
14754;SDS011;7469;50.906;6.952;2023-11-21T14:22:19;42.70;;;23.43;;
14754;SDS011;7469;50.906;6.952;2023-11-21T14:24:48;48.77;;;24.27;;
14754;SDS011;7469;50.906;6.952;2023-11-21T14:27:18;46.17;;;23.17;;
14754;SDS011;7469;50.906;6.952;2023-11-21T14:29:47;44.50;;;23.20;;
14754;SDS011;7469;50.906;6.952;2023-11-21T14:32:15;46.10;;;23.23;;
14754;SDS011;7469;50.906;6.952;2023-11-21T14:34:43;40.57;;;22.67;;
14754;SDS011;7469;50.906;6.952;2023-11-21T14:37:13;47.50;;;22.20;;
14754;SDS011;7469;50.906;6.952;2023-11-21T14:39:43;37.67;;;20.57;;
14754;SDS011;7469;50.906;6.952;2023-11-21T14:42:14;41.50;;;21.93;;
14754;SDS011;7469;50.906;6.952;2023-11-21T14:44:42;44.80;;;20.83;;
14754;SDS011;7469;50.906;6.952;2023-11-21T14:47:11;38.80;;;21.73;;
14754;SDS011;7469;50.906;6.952;2023-11-21T14:49:43;38.20;;;20.23;;
14754;SDS011;7469;50.906;6.952;2023-11-21T14:52:22;43.63;;;21.50;;
14754;SDS011;7469;50.906;6.952;2023-11-21T14:55:02;42.93;;;21.53;;